createdAt,value
2019-02-16T00:00:53.424Z,70.50
2019-02-16T00:01:53.415Z,69.98
2019-02-16T00:02:53.495Z,70.40
2019-02-16T00:03:53.420Z,70.71
2019-02-16T00:04:53.373Z,69.78
2019-02-16T00:05:53.368Z,69.88
2019-02-16T00:06:53.395Z,69.98
2019-02-16T00:07:53.351Z,70.09
2019-02-16T00:08:53.347Z,70.29
2019-02-16T00:09:53.350Z,70.71
2019-02-16T00:10:53.334Z,70.81
2019-02-16T00:11:53.312Z,70.71
2019-02-16T00:12:53.296Z,70.84
2019-02-16T00:13:53.286Z,70.81
2019-02-16T00:14:53.312Z,70.61
2019-02-16T00:15:53.276Z,70.81
2019-02-16T00:16:53.263Z,71.43
2019-02-16T00:17:53.253Z,70.29
2019-02-16T00:18:53.271Z,70.50
2019-02-16T00:19:53.221Z,70.95
2019-02-16T00:20:53.218Z,70.53
2019-02-16T00:21:53.207Z,71.33
2019-02-16T00:22:53.182Z,71.02
2019-02-16T00:23:53.176Z,71.78
2019-02-16T00:24:53.185Z,71.36
2019-02-16T00:25:53.156Z,70.43
2019-02-16T00:26:53.157Z,70.43
2019-02-16T00:27:53.140Z,70.53
2019-02-16T00:28:53.134Z,70.43
2019-02-16T00:29:53.169Z,70.43
2019-02-16T00:30:53.100Z,71.15
2019-02-16T00:31:53.090Z,71.05
2019-02-16T00:32:53.080Z,70.84
2019-02-16T00:33:53.065Z,71.05
2019-02-16T00:34:53.096Z,71.15
2019-02-16T00:35:53.056Z,71.26
2019-02-16T00:36:53.034Z,70.98
2019-02-16T00:37:53.019Z,71.05
2019-02-16T00:38:54.173Z,71.29
2019-02-16T00:39:53.008Z,71.26
2019-02-16T00:40:53.016Z,72.22
2019-02-16T00:41:52.988Z,71.19
2019-02-16T00:42:52.974Z,71.36
2019-02-16T00:43:52.955Z,71.19
2019-02-16T00:44:52.951Z,72.22
2019-02-16T00:45:52.997Z,71.29
2019-02-16T00:46:52.932Z,71.67
2019-02-16T00:47:52.915Z,71.50
2019-02-16T00:48:52.943Z,71.67
2019-02-16T00:49:52.902Z,71.47
2019-02-16T00:50:52.886Z,71.67
2019-02-16T00:51:52.873Z,71.50
2019-02-16T00:52:52.868Z,72.22
2019-02-16T00:53:52.856Z,71.29
2019-02-16T00:54:52.859Z,71.50
2019-02-16T00:55:52.831Z,72.12
2019-02-16T00:56:52.816Z,71.91
2019-02-16T00:57:52.805Z,72.43
2019-02-16T00:58:52.820Z,72.33
2019-02-16T00:59:52.813Z,72.22
2019-02-16T01:00:52.793Z,72.46
2019-02-16T01:01:52.784Z,72.77
2019-02-16T01:02:52.747Z,72.67
2019-02-16T01:03:52.744Z,72.67
2019-02-16T01:04:52.770Z,72.98
2019-02-16T01:05:52.714Z,72.94
2019-02-16T01:06:52.757Z,73.19
2019-02-16T01:07:52.705Z,73.08
2019-02-16T01:08:52.682Z,73.71
2019-02-16T01:09:52.669Z,73.71
2019-02-16T01:10:52.683Z,73.19
2019-02-16T01:11:52.703Z,74.05
2019-02-16T01:12:52.647Z,73.74
2019-02-16T01:13:52.636Z,73.84
2019-02-16T01:14:52.616Z,74.26
2019-02-16T01:15:52.603Z,73.84
2019-02-16T01:16:52.596Z,74.08
2019-02-16T01:17:52.604Z,74.77
2019-02-16T01:18:52.591Z,74.98
2019-02-16T01:19:52.571Z,75.02
2019-02-16T01:20:52.556Z,76.05
2019-02-16T01:21:52.557Z,75.29
2019-02-16T01:22:52.548Z,76.05
2019-02-16T01:23:52.518Z,75.22
2019-02-16T01:24:53.152Z,75.29
2019-02-16T01:25:52.509Z,74.98
2019-02-16T01:26:52.489Z,75.53
2019-02-16T01:27:52.473Z,75.43
2019-02-16T01:28:52.493Z,75.50
2019-02-16T01:29:52.460Z,75.63
2019-02-16T01:30:52.462Z,75.53
2019-02-16T01:31:52.462Z,75.63
2019-02-16T01:32:52.448Z,75.74
2019-02-16T01:33:52.449Z,75.53
2019-02-16T01:34:52.412Z,75.84
2019-02-16T01:35:52.402Z,75.74
2019-02-16T01:36:52.389Z,75.84
2019-02-16T01:37:52.378Z,76.05
2019-02-16T01:38:52.399Z,76.05
2019-02-16T01:39:52.362Z,75.74
2019-02-16T01:40:52.349Z,75.95
2019-02-16T01:41:52.339Z,76.09
2019-02-16T01:42:52.337Z,76.50
2019-02-16T01:43:52.357Z,76.61
2019-02-16T01:44:52.318Z,76.61
2019-02-16T01:45:52.299Z,76.61
2019-02-16T01:46:52.280Z,75.88
2019-02-16T01:47:52.258Z,75.67
2019-02-16T01:48:52.252Z,75.88
2019-02-16T01:49:52.257Z,75.88
2019-02-16T01:50:52.252Z,76.09
2019-02-16T01:51:52.231Z,75.88
2019-02-16T01:52:52.230Z,75.88
2019-02-16T01:53:52.211Z,76.50
2019-02-16T01:54:52.584Z,76.50
2019-02-16T01:55:52.181Z,76.40
2019-02-16T01:56:52.179Z,76.29
2019-02-16T01:57:52.168Z,76.29
2019-02-16T01:58:52.152Z,76.23
2019-02-16T01:59:52.141Z,76.23
2019-02-16T02:00:52.152Z,76.81
2019-02-16T02:01:52.119Z,77.06
2019-02-16T02:02:52.121Z,77.26
2019-02-16T02:03:52.139Z,76.75
2019-02-16T02:04:52.094Z,76.33
2019-02-16T02:05:52.083Z,77.68
2019-02-16T02:06:52.090Z,76.85
2019-02-16T02:07:52.066Z,76.75
2019-02-16T02:08:52.055Z,76.95
2019-02-16T02:09:52.024Z,77.26
2019-02-16T02:10:52.024Z,77.37
2019-02-16T02:11:52.031Z,77.47
2019-02-16T02:12:52.004Z,77.99
2019-02-16T02:13:51.988Z,77.99
2019-02-16T02:14:51.978Z,77.99
2019-02-16T02:15:51.972Z,77.82
2019-02-16T02:16:51.974Z,77.68
2019-02-16T02:17:51.955Z,78.03
2019-02-16T02:18:51.928Z,77.92
2019-02-16T02:19:51.981Z,77.82
2019-02-16T02:20:51.906Z,78.03
2019-02-16T02:21:51.898Z,77.92
2019-02-16T02:22:51.909Z,78.34
2019-02-16T02:23:51.909Z,77.82
2019-02-16T02:24:51.875Z,78.23
2019-02-16T02:25:51.891Z,77.61
2019-02-16T02:26:51.853Z,78.34
2019-02-16T02:27:51.845Z,77.51
2019-02-16T02:28:51.832Z,78.44
2019-02-16T02:29:51.851Z,78.44
2019-02-16T02:30:51.820Z,78.37
2019-02-16T02:31:51.793Z,78.16
2019-02-16T02:32:51.783Z,78.03
2019-02-16T02:33:51.774Z,78.06
2019-02-16T02:34:51.773Z,78.37
2019-02-16T02:35:51.934Z,77.85
2019-02-16T02:36:51.749Z,78.78
2019-02-16T02:37:51.751Z,78.78
2019-02-16T02:38:51.717Z,79.20
2019-02-16T02:39:51.710Z,78.89
2019-02-16T02:40:51.727Z,79.30
2019-02-16T02:41:51.678Z,78.99
2019-02-16T02:42:51.675Z,79.51
2019-02-16T02:43:51.666Z,78.89
2019-02-16T02:44:51.641Z,79.20
2019-02-16T02:45:51.635Z,79.10
2019-02-16T02:46:51.646Z,79.20
2019-02-16T02:47:51.630Z,79.30
2019-02-16T02:48:51.616Z,79.44
2019-02-16T02:49:51.594Z,79.30
2019-02-16T02:50:51.575Z,79.76
2019-02-16T02:51:52.560Z,79.76
2019-02-16T02:52:51.556Z,79.55
2019-02-16T02:53:51.545Z,79.55
2019-02-16T02:54:51.545Z,79.65
2019-02-16T02:55:51.532Z,79.34
2019-02-16T02:56:51.540Z,80.18
2019-02-16T02:57:51.513Z,79.76
2019-02-16T02:58:51.492Z,80.28
2019-02-16T02:59:51.485Z,79.69
2019-02-16T03:00:51.479Z,80.28
2019-02-16T03:01:51.480Z,80.07
2019-02-16T03:02:51.449Z,80.59
2019-02-16T03:03:51.449Z,80.21
2019-02-16T03:04:51.438Z,80.63
2019-02-16T03:05:51.420Z,80.52
2019-02-16T03:06:51.436Z,80.52
2019-02-16T03:07:51.407Z,80.94
2019-02-16T03:08:51.391Z,80.94
2019-02-16T03:09:51.393Z,80.83
2019-02-16T03:10:51.369Z,81.35
2019-02-16T03:11:51.385Z,81.25
2019-02-16T03:12:51.347Z,80.52
2019-02-16T03:13:51.345Z,80.63
2019-02-16T03:14:51.340Z,81.25
2019-02-16T03:15:51.330Z,81.29
2019-02-16T03:16:51.302Z,81.29
2019-02-16T03:17:51.306Z,80.98
2019-02-16T03:18:51.296Z,81.18
2019-02-16T03:19:51.280Z,81.08
2019-02-16T03:20:51.276Z,80.98
2019-02-16T03:21:51.253Z,81.29
2019-02-16T03:22:51.273Z,81.39
2019-02-16T03:23:51.225Z,81.53
2019-02-16T03:24:51.227Z,81.95
2019-02-16T03:25:51.190Z,81.95
2019-02-16T03:26:51.199Z,81.74
2019-02-16T03:27:51.183Z,81.95
2019-02-16T03:28:51.199Z,82.15
2019-02-16T03:29:51.174Z,82.68
2019-02-16T03:30:51.152Z,82.36
2019-02-16T03:31:51.160Z,82.46
2019-02-16T03:32:51.143Z,82.46
2019-02-16T03:33:51.191Z,82.36
2019-02-16T03:34:51.109Z,82.26
2019-02-16T03:35:51.137Z,82.36
2019-02-16T03:36:51.111Z,82.46
2019-02-16T03:37:51.091Z,82.46
2019-02-16T03:38:51.079Z,82.57
2019-02-16T03:39:51.095Z,82.78
2019-02-16T03:40:51.055Z,82.78
2019-02-16T03:41:51.042Z,82.46
2019-02-16T03:42:51.020Z,81.95
2019-02-16T03:43:51.006Z,82.46
2019-02-16T03:44:50.993Z,81.95
2019-02-16T03:45:51.001Z,81.74
2019-02-16T03:46:50.983Z,81.53
2019-02-16T03:47:50.975Z,81.63
2019-02-16T03:48:50.955Z,81.18
2019-02-16T03:49:50.944Z,81.63
2019-02-16T03:50:50.966Z,81.18
2019-02-16T03:51:50.936Z,80.66
2019-02-16T03:52:50.916Z,80.42
2019-02-16T03:53:50.906Z,79.90
2019-02-16T03:54:50.888Z,79.90
2019-02-16T03:55:50.875Z,79.69
2019-02-16T03:56:50.893Z,79.69
2019-02-16T03:57:50.855Z,79.27
2019-02-16T03:58:50.846Z,79.06
2019-02-16T03:59:50.837Z,79.03
2019-02-16T04:00:50.829Z,78.92
2019-02-16T04:01:50.824Z,79.34
2019-02-16T04:02:50.819Z,78.41
2019-02-16T04:03:50.789Z,78.30
2019-02-16T04:04:50.790Z,78.51
2019-02-16T04:05:50.770Z,78.20
2019-02-16T04:06:50.784Z,79.03
2019-02-16T04:07:50.749Z,78.82
2019-02-16T04:08:50.734Z,78.20
2019-02-16T04:09:50.723Z,78.20
2019-02-16T04:10:50.724Z,78.20
2019-02-16T04:11:50.740Z,77.99
2019-02-16T04:12:50.701Z,78.41
2019-02-16T04:13:50.694Z,78.23
2019-02-16T04:14:50.654Z,79.06
2019-02-16T04:15:50.662Z,79.34
2019-02-16T04:16:50.636Z,79.38
2019-02-16T04:17:50.665Z,79.38
2019-02-16T04:18:50.619Z,79.69
2019-02-16T04:19:50.614Z,79.90
2019-02-16T04:20:50.587Z,79.58
2019-02-16T04:21:50.584Z,79.48
2019-02-16T04:22:50.609Z,79.58
2019-02-16T04:23:50.609Z,79.38
2019-02-16T04:24:50.565Z,79.38
2019-02-16T04:25:50.554Z,79.41
2019-02-16T04:26:50.526Z,79.38
2019-02-16T04:27:50.555Z,80.00
2019-02-16T04:28:50.505Z,79.80
2019-02-16T04:29:50.495Z,80.15
2019-02-16T04:30:50.487Z,80.04
2019-02-16T04:31:50.480Z,80.04
2019-02-16T04:32:50.473Z,79.83
2019-02-16T04:33:50.501Z,79.94
2019-02-16T04:34:50.437Z,80.35
2019-02-16T04:35:50.420Z,80.25
2019-02-16T04:36:50.421Z,80.25
2019-02-16T04:37:50.422Z,80.15
2019-02-16T04:38:50.396Z,79.52
2019-02-16T04:39:50.407Z,80.46
2019-02-16T04:40:50.367Z,80.46
2019-02-16T04:41:50.360Z,80.18
2019-02-16T04:42:50.369Z,80.15
2019-02-16T04:43:50.347Z,80.04
2019-02-16T04:44:50.354Z,80.08
2019-02-16T04:45:50.328Z,80.15
2019-02-16T04:46:50.302Z,80.18
2019-02-16T04:47:50.301Z,80.35
2019-02-16T04:48:50.290Z,80.46
2019-02-16T04:49:50.302Z,79.94
2019-02-16T04:50:50.257Z,79.83
2019-02-16T04:51:50.258Z,79.83
2019-02-16T04:52:50.246Z,80.25
2019-02-16T04:53:50.227Z,79.72
2019-02-16T04:54:50.225Z,79.83
2019-02-16T04:55:50.255Z,80.25
2019-02-16T04:56:50.202Z,80.29
2019-02-16T04:57:50.208Z,79.72
2019-02-16T04:58:50.167Z,80.25
2019-02-16T04:59:50.178Z,79.97
2019-02-16T05:00:50.150Z,79.76
2019-02-16T05:01:50.167Z,79.76
2019-02-16T05:02:50.134Z,80.15
2019-02-16T05:03:50.122Z,80.08
2019-02-16T05:04:50.128Z,79.97
2019-02-16T05:05:50.105Z,80.49
2019-02-16T05:06:50.120Z,80.80
2019-02-16T05:07:50.079Z,81.01
2019-02-16T05:08:50.075Z,80.29
2019-02-16T05:09:50.065Z,80.60
2019-02-16T05:10:50.060Z,80.29
2019-02-16T05:11:50.055Z,80.49
2019-02-16T05:12:50.020Z,80.39
2019-02-16T05:13:50.022Z,80.08
2019-02-16T05:14:50.015Z,80.60
2019-02-16T05:15:50.005Z,80.39
2019-02-16T05:16:50.001Z,80.91
2019-02-16T05:17:49.968Z,80.60
2019-02-16T05:18:49.950Z,80.49
2019-02-16T05:19:49.941Z,80.60
2019-02-16T05:20:49.946Z,79.97
2019-02-16T05:21:49.953Z,80.60
2019-02-16T05:22:49.921Z,80.91
2019-02-16T05:23:49.928Z,81.01
2019-02-16T05:24:49.888Z,80.49
2019-02-16T05:25:51.111Z,80.60
2019-02-16T05:26:49.877Z,80.49
2019-02-16T05:27:49.886Z,80.70
2019-02-16T05:28:49.853Z,80.70
2019-02-16T05:29:49.857Z,80.49
2019-02-16T05:30:49.843Z,80.49
2019-02-16T05:31:49.806Z,80.70
2019-02-16T05:32:49.809Z,80.60
2019-02-16T05:33:49.833Z,81.05
2019-02-16T05:34:49.773Z,80.94
2019-02-16T05:35:49.776Z,80.43
2019-02-16T05:36:49.756Z,81.05
2019-02-16T05:37:49.745Z,80.49
2019-02-16T05:38:49.785Z,80.53
2019-02-16T05:39:49.746Z,80.29
2019-02-16T05:40:49.716Z,79.87
2019-02-16T05:41:49.721Z,79.91
2019-02-16T05:42:49.699Z,80.18
2019-02-16T05:43:49.689Z,80.53
2019-02-16T05:44:49.695Z,80.74
2019-02-16T05:45:49.676Z,80.63
2019-02-16T05:46:49.647Z,80.74
2019-02-16T05:47:49.640Z,80.63
2019-02-16T05:48:49.649Z,80.63
2019-02-16T05:49:49.637Z,81.05
2019-02-16T05:50:49.614Z,80.74
2019-02-16T05:51:49.607Z,80.63
2019-02-16T05:52:54.536Z,80.84
2019-02-16T05:53:50.576Z,80.63
2019-02-16T05:54:49.603Z,81.15
2019-02-16T05:55:49.550Z,80.84
2019-02-16T05:56:49.548Z,80.74
2019-02-16T05:57:49.539Z,80.84
2019-02-16T05:58:49.518Z,80.74
2019-02-16T05:59:49.506Z,80.74
2019-02-16T06:00:49.536Z,81.09
2019-02-16T06:01:54.060Z,81.09
2019-02-16T06:02:49.482Z,81.57
2019-02-16T06:03:49.470Z,81.36
2019-02-16T06:04:49.454Z,81.67
2019-02-16T06:05:49.589Z,81.26
2019-02-16T06:06:49.593Z,80.84
2019-02-16T06:07:49.420Z,81.15
2019-02-16T06:08:49.412Z,81.26
2019-02-16T06:09:49.402Z,81.15
2019-02-16T06:10:49.401Z,81.05
2019-02-16T06:11:49.415Z,80.84
2019-02-16T06:12:49.361Z,80.63
2019-02-16T06:13:49.351Z,80.63
2019-02-16T06:14:49.368Z,80.63
2019-02-16T06:15:49.347Z,80.67
2019-02-16T06:16:49.359Z,80.74
2019-02-16T06:17:49.321Z,80.53
2019-02-16T06:18:49.296Z,81.05
2019-02-16T06:19:49.286Z,80.88
2019-02-16T06:20:49.280Z,80.88
2019-02-16T06:21:49.275Z,80.88
2019-02-16T06:22:49.292Z,80.57
2019-02-16T06:23:49.250Z,80.67
2019-02-16T06:24:49.237Z,80.57
2019-02-16T06:25:49.241Z,80.26
2019-02-16T06:26:49.208Z,80.36
2019-02-16T06:27:49.199Z,79.63
2019-02-16T06:28:49.218Z,80.11
2019-02-16T06:29:49.190Z,80.01
2019-02-16T06:30:49.168Z,80.11
2019-02-16T06:31:49.158Z,79.59
2019-02-16T06:32:49.146Z,79.91
2019-02-16T06:33:49.161Z,79.38
2019-02-16T06:34:49.131Z,79.38
2019-02-16T06:35:49.124Z,79.07
2019-02-16T06:36:49.114Z,78.31
2019-02-16T06:37:49.100Z,78.62
2019-02-16T06:38:49.077Z,78.72
2019-02-16T06:39:49.099Z,78.31
2019-02-16T06:40:49.061Z,77.40
2019-02-16T06:41:49.051Z,75.57
2019-02-16T06:42:49.044Z,73.28
2019-02-16T06:43:49.038Z,71.28
2019-02-16T06:44:49.016Z,70.11
2019-02-16T06:45:49.021Z,69.15
2019-02-16T06:46:48.998Z,67.67
2019-02-16T06:47:48.990Z,67.67
2019-02-16T06:48:49.000Z,66.81
2019-02-16T06:49:48.970Z,65.61
2019-02-16T06:50:49.003Z,64.78
2019-02-16T06:51:48.945Z,63.90
2019-02-16T06:52:48.928Z,63.49
2019-02-16T06:53:48.921Z,61.47
2019-02-16T06:54:48.926Z,61.05
2019-02-16T06:55:48.907Z,61.24
2019-02-16T06:56:48.908Z,60.51
2019-02-16T06:57:48.879Z,60.41
2019-02-16T06:58:48.896Z,60.82
2019-02-16T06:59:48.857Z,60.61
2019-02-16T07:00:48.848Z,60.00
2019-02-16T07:01:48.853Z,59.79
2019-02-16T07:02:48.820Z,60.00
2019-02-16T07:03:48.804Z,59.45
2019-02-16T07:04:48.801Z,58.91
2019-02-16T07:05:48.807Z,58.40
2019-02-16T07:06:48.784Z,57.75
2019-02-16T07:07:48.794Z,57.96
2019-02-16T07:08:48.766Z,57.21
2019-02-16T07:09:48.747Z,56.57
2019-02-16T07:10:48.747Z,55.62
2019-02-16T07:11:48.722Z,55.30
2019-02-16T07:12:48.705Z,55.82
2019-02-16T07:13:48.712Z,55.43
2019-02-16T07:14:48.701Z,54.69
2019-02-16T07:15:48.684Z,55.51
2019-02-16T07:16:48.667Z,55.30
2019-02-16T07:17:48.660Z,55.51
2019-02-16T07:18:48.677Z,55.33
2019-02-16T07:19:48.641Z,55.51
2019-02-16T07:20:48.628Z,54.79
2019-02-16T07:21:48.623Z,55.10
2019-02-16T07:22:48.600Z,54.38
2019-02-16T07:23:48.584Z,54.23
2019-02-16T07:24:48.611Z,52.56
2019-02-16T07:25:48.562Z,52.04
2019-02-16T07:26:48.564Z,52.02
2019-02-16T07:27:48.552Z,52.44
2019-02-16T07:28:48.546Z,51.90
2019-02-16T07:29:48.538Z,51.05
2019-02-16T07:30:48.526Z,51.23
2019-02-16T07:31:48.498Z,50.49
2019-02-16T07:32:48.501Z,49.24
2019-02-16T07:33:48.489Z,48.91
2019-02-16T07:34:48.470Z,48.30
2019-02-16T07:35:48.473Z,48.27
2019-02-16T07:36:48.441Z,47.25
2019-02-16T07:37:48.451Z,47.85
2019-02-16T07:38:48.430Z,47.25
2019-02-16T07:39:48.420Z,46.97
2019-02-16T07:40:48.435Z,48.30
2019-02-16T07:41:48.423Z,48.11
2019-02-16T07:42:48.377Z,48.83
2019-02-16T07:43:48.368Z,49.14
2019-02-16T07:44:48.357Z,48.32
2019-02-16T07:45:48.362Z,48.81
2019-02-16T07:46:48.373Z,48.50
2019-02-16T07:47:48.329Z,48.07
2019-02-16T07:48:48.315Z,46.82
2019-02-16T07:49:48.302Z,46.49
2019-02-16T07:50:48.295Z,46.16
2019-02-16T07:51:48.298Z,44.59
2019-02-16T07:52:48.309Z,43.41
2019-02-16T07:53:48.264Z,41.66
2019-02-16T07:54:48.246Z,41.31
2019-02-16T07:55:48.250Z,41.90
2019-02-16T07:56:48.232Z,40.56
2019-02-16T07:57:48.213Z,39.61
2019-02-16T07:58:48.232Z,38.88
2019-02-16T07:59:48.198Z,38.15
2019-02-16T08:00:48.189Z,37.81
2019-02-16T08:01:48.176Z,36.36
2019-02-16T08:02:48.163Z,35.43
2019-02-16T08:03:48.168Z,35.53
2019-02-16T08:04:48.153Z,35.11
2019-02-16T08:05:48.137Z,35.60
2019-02-16T08:06:48.115Z,34.47
2019-02-16T08:07:48.107Z,34.23
2019-02-16T08:08:48.129Z,33.22
2019-02-16T08:09:48.083Z,33.21
2019-02-16T08:10:48.071Z,32.50
2019-02-16T08:11:48.067Z,32.70
2019-02-16T08:12:48.047Z,32.59
2019-02-16T08:13:48.036Z,32.78
2019-02-16T08:14:48.032Z,32.46
2019-02-16T08:15:48.013Z,31.67
2019-02-16T08:16:48.004Z,32.29
2019-02-16T08:17:47.991Z,32.49
2019-02-16T08:18:47.991Z,31.67
2019-02-16T08:19:48.003Z,32.27
2019-02-16T08:20:47.956Z,31.87
2019-02-16T08:21:47.955Z,32.37
2019-02-16T08:22:47.949Z,31.55
2019-02-16T08:23:47.933Z,31.96
2019-02-16T08:24:48.905Z,31.96
2019-02-16T08:25:47.914Z,32.27
2019-02-16T08:26:47.891Z,31.45
2019-02-16T08:27:47.878Z,30.93
2019-02-16T08:28:47.874Z,31.62
2019-02-16T08:29:47.889Z,30.50
2019-02-16T08:30:47.860Z,30.07
2019-02-16T08:31:47.844Z,29.24
2019-02-16T08:32:47.836Z,28.53
2019-02-16T08:33:47.831Z,28.43
2019-02-16T08:34:47.801Z,27.70
2019-02-16T08:35:47.816Z,28.09
2019-02-16T08:36:47.791Z,27.29
2019-02-16T08:37:47.784Z,26.28
2019-02-16T08:38:47.759Z,27.00
2019-02-16T08:39:47.750Z,27.29
2019-02-16T08:40:47.759Z,26.17
2019-02-16T08:41:47.726Z,25.87
2019-02-16T08:42:47.752Z,25.85
2019-02-16T08:43:47.731Z,26.37
2019-02-16T08:44:47.701Z,26.06
2019-02-16T08:45:47.722Z,26.03
2019-02-16T08:46:47.669Z,25.22
2019-02-16T08:47:47.661Z,24.69
2019-02-16T08:48:47.649Z,24.40
2019-02-16T08:49:47.653Z,24.57
2019-02-16T08:50:47.637Z,23.96
2019-02-16T08:51:47.674Z,23.85
2019-02-16T08:52:47.639Z,23.05
2019-02-16T08:53:49.795Z,23.23
2019-02-16T08:54:47.598Z,23.15
2019-02-16T08:55:47.585Z,22.24
2019-02-16T08:56:47.596Z,22.03
2019-02-16T08:57:47.572Z,21.84
2019-02-16T08:58:47.558Z,22.44
2019-02-16T08:59:47.531Z,23.16
2019-02-16T09:00:47.520Z,22.95
2019-02-16T09:01:47.506Z,23.15
2019-02-16T09:02:47.505Z,22.65
2019-02-16T09:03:47.513Z,23.25
2019-02-16T09:04:47.487Z,22.85
2019-02-16T09:05:47.472Z,22.03
2019-02-16T09:06:47.484Z,22.22
2019-02-16T09:07:47.448Z,21.31
2019-02-16T09:08:47.463Z,21.59
2019-02-16T09:09:47.426Z,21.90
2019-02-16T09:10:47.411Z,21.31
2019-02-16T09:11:47.410Z,21.53
2019-02-16T09:12:47.385Z,21.94
2019-02-16T09:13:47.404Z,21.74
2019-02-16T09:14:47.380Z,21.74
2019-02-16T09:15:47.360Z,23.24
2019-02-16T09:16:47.348Z,22.24
2019-02-16T09:17:47.331Z,21.74
2019-02-16T09:18:47.350Z,22.27
2019-02-16T09:19:47.307Z,23.26
2019-02-16T09:20:47.290Z,21.84
2019-02-16T09:21:47.278Z,22.04
2019-02-16T09:22:47.321Z,22.42
2019-02-16T09:23:47.273Z,21.20
2019-02-16T09:24:47.259Z,21.41
2019-02-16T09:25:47.240Z,21.70
2019-02-16T09:26:47.238Z,21.60
2019-02-16T09:27:47.248Z,21.01
2019-02-16T09:28:47.228Z,20.81
2019-02-16T09:29:47.246Z,20.98
2019-02-16T09:30:47.193Z,20.21
2019-02-16T09:31:47.184Z,20.20
2019-02-16T09:32:47.167Z,20.57
2019-02-16T09:33:47.157Z,20.16
2019-02-16T09:34:47.174Z,20.14
2019-02-16T09:35:47.182Z,18.73
2019-02-16T09:36:47.135Z,19.30
2019-02-16T09:37:47.129Z,18.19
2019-02-16T09:38:47.105Z,18.50
2019-02-16T09:39:47.142Z,17.99
2019-02-16T09:40:47.087Z,18.19
2019-02-16T09:41:47.079Z,18.10
2019-02-16T09:42:47.076Z,18.29
2019-02-16T09:43:47.049Z,17.30
2019-02-16T09:44:47.038Z,17.09
2019-02-16T09:45:47.040Z,17.39
2019-02-16T09:46:47.032Z,17.38
2019-02-16T09:47:47.015Z,16.49
2019-02-16T09:48:47.039Z,16.39
2019-02-16T09:49:46.992Z,15.89
2019-02-16T09:50:46.968Z,16.38
2019-02-16T09:51:46.958Z,16.58
2019-02-16T09:52:46.953Z,16.80
2019-02-16T09:53:46.950Z,17.11
2019-02-16T09:54:46.967Z,17.22
2019-02-16T09:55:46.924Z,17.93
2019-02-16T09:56:46.906Z,17.93
2019-02-16T09:57:46.914Z,18.44
2019-02-16T09:58:46.911Z,17.44
2019-02-16T09:59:46.883Z,17.33
2019-02-16T10:00:46.893Z,18.42
2019-02-16T10:01:46.858Z,18.33
2019-02-16T10:02:46.839Z,17.95
2019-02-16T10:03:46.833Z,18.05
2019-02-16T10:04:46.825Z,17.94
2019-02-16T10:05:46.827Z,18.95
2019-02-16T10:06:46.814Z,18.65
2019-02-16T10:07:46.819Z,17.94
2019-02-16T10:08:46.788Z,17.93
2019-02-16T10:09:46.774Z,17.73
2019-02-16T10:10:46.758Z,17.35
2019-02-16T10:11:46.768Z,18.44
2019-02-16T10:12:46.742Z,18.40
2019-02-16T10:13:46.740Z,16.90
2019-02-16T10:14:46.716Z,17.30
2019-02-16T10:15:46.708Z,16.60
2019-02-16T10:16:46.711Z,16.60
2019-02-16T10:17:46.682Z,16.50
2019-02-16T10:18:46.681Z,16.88
2019-02-16T10:19:46.668Z,16.68
2019-02-16T10:20:46.660Z,16.19
2019-02-16T10:21:46.668Z,16.78
2019-02-16T10:22:46.632Z,16.20
2019-02-16T10:23:46.623Z,16.51
2019-02-16T10:24:46.610Z,17.41
2019-02-16T10:25:46.599Z,17.22
2019-02-16T10:26:46.626Z,17.72
2019-02-16T10:27:46.584Z,18.13
2019-02-16T10:28:46.565Z,18.01
2019-02-16T10:29:46.570Z,18.62
2019-02-16T10:30:46.576Z,18.42
2019-02-16T10:31:46.546Z,18.21
2019-02-16T10:32:46.561Z,18.41
2019-02-16T10:33:46.530Z,18.02
2019-02-16T10:34:46.510Z,18.73
2019-02-16T10:35:46.493Z,18.35
2019-02-16T10:36:46.486Z,18.95
2019-02-16T10:37:46.494Z,18.35
2019-02-16T10:38:46.477Z,18.44
2019-02-16T10:39:46.461Z,18.74
2019-02-16T10:40:46.455Z,19.45
2019-02-16T10:41:46.442Z,18.44
2019-02-16T10:42:46.446Z,18.04
2019-02-16T10:43:46.409Z,18.03
2019-02-16T10:44:46.410Z,18.52
2019-02-16T10:45:46.401Z,17.93
2019-02-16T10:46:46.380Z,18.70
2019-02-16T10:47:46.399Z,17.31
2019-02-16T10:48:46.357Z,17.41
2019-02-16T10:49:46.349Z,18.21
2019-02-16T10:50:46.345Z,18.70
2019-02-16T10:51:46.338Z,17.51
2019-02-16T10:52:46.348Z,18.41
2019-02-16T10:53:46.317Z,18.73
2019-02-16T10:54:46.295Z,17.44
2019-02-16T10:55:46.286Z,18.74
2019-02-16T10:56:46.271Z,19.35
2019-02-16T10:57:46.297Z,18.96
2019-02-16T10:58:46.267Z,18.54
2019-02-16T10:59:46.258Z,18.76
2019-02-16T11:00:46.231Z,19.56
2019-02-16T11:01:46.239Z,17.77
2019-02-16T11:02:46.222Z,17.48
2019-02-16T11:03:46.236Z,18.57
2019-02-16T11:04:46.198Z,18.96
2019-02-16T11:05:46.186Z,19.27
2019-02-16T11:06:46.164Z,19.77
2019-02-16T11:07:46.177Z,19.48
2019-02-16T11:08:46.147Z,19.97
2019-02-16T11:09:46.168Z,19.18
2019-02-16T11:10:46.138Z,19.09
2019-02-16T11:11:46.127Z,19.27
2019-02-16T11:12:46.111Z,19.59
2019-02-16T11:13:46.103Z,19.57
2019-02-16T11:14:46.084Z,19.57
2019-02-16T11:15:46.093Z,18.87
2019-02-16T11:16:46.069Z,18.47
2019-02-16T11:17:46.063Z,18.26
2019-02-16T11:18:46.037Z,18.93
2019-02-16T11:19:46.049Z,18.62
2019-02-16T11:20:46.021Z,17.41
2019-02-16T11:21:46.006Z,18.48
2019-02-16T11:22:46.051Z,16.49
2019-02-16T11:23:46.001Z,16.38
2019-02-16T11:24:45.999Z,17.16
2019-02-16T11:25:45.981Z,16.59
2019-02-16T11:26:45.973Z,17.68
2019-02-16T11:27:45.939Z,16.57
2019-02-16T11:28:45.939Z,16.09
2019-02-16T11:29:45.926Z,16.88
2019-02-16T11:30:45.924Z,16.58
2019-02-16T11:31:45.939Z,16.38
2019-02-16T11:32:45.889Z,16.88
2019-02-16T11:33:45.879Z,16.38
2019-02-16T11:34:45.879Z,16.76
2019-02-16T11:35:45.867Z,16.46
2019-02-16T11:36:45.909Z,16.36
2019-02-16T11:37:45.861Z,16.06
2019-02-16T11:38:45.826Z,15.47
2019-02-16T11:39:45.813Z,15.47
2019-02-16T11:40:45.802Z,16.36
2019-02-16T11:41:45.790Z,16.36
2019-02-16T11:42:45.801Z,15.58
2019-02-16T11:43:45.777Z,15.78
2019-02-16T11:44:45.773Z,15.39
2019-02-16T11:45:45.793Z,16.89
2019-02-16T11:46:45.750Z,17.49
2019-02-16T11:47:45.770Z,17.60
2019-02-16T11:48:45.790Z,17.31
2019-02-16T11:49:45.734Z,17.71
2019-02-16T11:50:45.704Z,17.21
2019-02-16T11:51:45.705Z,17.19
2019-02-16T11:52:45.687Z,17.11
2019-02-16T11:53:45.705Z,17.11
2019-02-16T11:54:46.004Z,17.21
2019-02-16T11:55:45.658Z,18.40
2019-02-16T11:56:45.652Z,18.13
2019-02-16T11:57:45.638Z,17.76
2019-02-16T11:58:45.626Z,20.49
2019-02-16T11:59:45.657Z,20.94
2019-02-16T12:00:45.593Z,21.98
2019-02-16T12:01:45.589Z,23.74
2019-02-16T12:02:45.611Z,25.28
2019-02-16T12:03:45.577Z,25.71
2019-02-16T12:04:45.557Z,27.54
2019-02-16T12:05:45.564Z,27.36
2019-02-16T12:06:45.558Z,29.00
2019-02-16T12:07:45.532Z,29.03
2019-02-16T12:08:45.519Z,30.05
2019-02-16T12:09:45.511Z,29.96
2019-02-16T12:10:45.492Z,30.48
2019-02-16T12:11:45.498Z,30.70
2019-02-16T12:12:45.467Z,31.51
2019-02-16T12:13:45.475Z,31.02
2019-02-16T12:14:45.457Z,31.93
2019-02-16T12:15:45.443Z,31.82
2019-02-16T12:16:45.457Z,31.73
2019-02-16T12:17:45.435Z,32.33
2019-02-16T12:18:45.403Z,32.03
2019-02-16T12:19:45.394Z,31.73
2019-02-16T12:20:45.401Z,32.14
2019-02-16T12:21:45.408Z,32.35
2019-02-16T12:22:45.356Z,31.23
2019-02-16T12:23:45.350Z,30.22
2019-02-16T12:24:55.841Z,29.41
2019-02-16T12:25:46.322Z,30.24
2019-02-16T12:26:45.352Z,30.24
2019-02-16T12:27:45.314Z,30.64
2019-02-16T12:28:45.302Z,31.45
2019-02-16T12:29:45.289Z,31.45
2019-02-16T12:30:45.270Z,29.73
2019-02-16T12:31:45.254Z,29.93
2019-02-16T12:32:45.275Z,29.73
2019-02-16T12:33:45.235Z,30.13
2019-02-16T12:34:45.236Z,30.13
2019-02-16T12:35:45.222Z,30.76
2019-02-16T12:36:45.200Z,30.35
2019-02-16T12:37:45.214Z,31.18
2019-02-16T12:38:45.191Z,30.87
2019-02-16T12:39:45.183Z,31.78
2019-02-16T12:40:45.167Z,29.96
2019-02-16T12:41:45.156Z,31.68
2019-02-16T12:42:45.157Z,31.19
2019-02-16T12:43:45.129Z,32.00
2019-02-16T12:44:45.119Z,32.00
2019-02-16T12:45:51.186Z,32.61
2019-02-16T12:46:46.107Z,32.31
2019-02-16T12:47:45.107Z,31.29
2019-02-16T12:48:45.086Z,32.20
2019-02-16T12:49:45.063Z,31.40
2019-02-16T12:50:45.051Z,30.89
2019-02-16T12:51:45.033Z,31.80
2019-02-16T12:52:45.052Z,31.40